Domov               UVHVVR             MKGP            O straneh              
ZDRAVSTVENO VARSTVO RASTLIN
  MREŽA AGROMET. POSTAJ
 ► PROGNOSTIČNA OBVESTILA
AGROMETEOROLOŠKI PODATKI -
ARSO
OBVLADOVANJE TVEGANJ ZARADI
NEUGODNIH VREMENSKIH RAZMER
  ► NARAVNE NESREČE
  ► SUŠA/MOČA
  ► NAMAKANJE
  ► ŽLED (gozdarstvo)
KARTOGRAFSKI PRIKAZI
SPLETNE POVEZAVE
PROJEKTI IN PUBLIKACIJE

AGROMETEOROLOŠKA MREŽA: VREMENSKE POSTAJE IN FENOLOŠKA OPAZOVANJA

Pregled podatkov za lokacijo Drašiči, meteorološka postaja 38741

Pregled senzorjev na lokaciji

ID Ime Zadnja
vrednost
Datum
zadnje
spremembe
Tip
senzorja
1865 Temperatura 2 m ( °C) 30,65 °C 28.6.2017 17:00 50YA
1866 Relativna vlaga 2 m (% RH) 38,83 % RH 28.6.2017 17:00 50YA
1867 Omočenost lista (U) 0 U 28.6.2017 17:00 A730WET
1868 Padavine 0.2 mm (mm) 0 mm 28.6.2017 17:00 Rain-O-Matic

Pregled podatkov zadnjih 24 ur

Zap.
št.
Datum in čas Drašiči
Omočenost
lista
Padavine
0.2
mm
Relativna
vlaga
2
m
Temperatura
2
m
0 28.6.2017 16:00 0 0 38,83 30,65
1 28.6.2017 15:30 0 0 40,81 30,16
2 28.6.2017 15:00 0 0 43,74 28,5
3 28.6.2017 14:30 0 0 39,12 29,52
4 28.6.2017 14:00 0 0 34,02 31,55
5 28.6.2017 13:30 0 0 34,26 32,14
6 28.6.2017 13:00 0 0 36,87 30,62
7 28.6.2017 12:30 0 0 37,12 32,11
8 28.6.2017 12:00 0 0 37,44 32,14
9 28.6.2017 11:30 0 0 39,46 31,82
10 28.6.2017 11:00 0 0 42,05 31,04
11 28.6.2017 10:30 0 0 42,78 30,31
12 28.6.2017 10:00 0 0 41,81 30,13
13 28.6.2017 09:30 0 0 45,05 29,18
14 28.6.2017 09:00 0 0 48,01 28,23
15 28.6.2017 08:30 0 0 50,7 27,45
16 28.6.2017 08:00 0 0 58,41 25,57
17 28.6.2017 07:30 0 0 66,11 23,39
18 28.6.2017 07:00 0 0 66,45 22,66
19 28.6.2017 06:30 0 0 76,8 20,29
20 28.6.2017 06:00 0 0 80,81 18,97
21 28.6.2017 05:30 1 0 85,76 17,44
22 28.6.2017 05:00 8 0 89,04 16,61
23 28.6.2017 04:30 10 0 89,72 16,41
24 28.6.2017 04:00 7 0 87,4 16,61
25 28.6.2017 03:30 2 0 84,98 17,24
26 28.6.2017 03:00 1 0 84,32 17,22
27 28.6.2017 02:30 1 0 82,44 17,53
28 28.6.2017 02:00 1 0 83,54 17,44
29 28.6.2017 01:30 1 0 83,44 17,51
30 28.6.2017 01:00 1 0 83,08 17,68
31 28.6.2017 00:30 0 0 80,9 18,27
32 28.6.2017 00:00 0 0 77,44 18,66
33 27.6.2017 23:30 0 0 75,02 19,19
34 27.6.2017 23:00 4 0 75,02 19,32
35 27.6.2017 22:30 9 0 78,71 18,97
36 27.6.2017 22:00 0 0 74,33 19,63
37 27.6.2017 21:30 0 0 72,94 20,12
38 27.6.2017 21:00 0 0 72,04 20,49
39 27.6.2017 20:30 0 0 69,55 21,34
40 27.6.2017 20:00 0 0 65,64 22,39
41 27.6.2017 19:30 0 0 58,46 24
42 27.6.2017 19:00 0 0 49,72 26,23
43 27.6.2017 18:30 0 0 45,91 27,25
44 27.6.2017 18:00 0 0 44,59 28,18
© 2011 Ministrstvo za kmetijstvo, gozdarstvo in prehrano. Vse pravice pridržane.